Time;durP1;ratioP1;P1;durP2;ratioP2;P2;SDS_P1;SDS_P2;PMS_P1;PMS_P2;Temp;Humidity;BMP_temperature;BMP_pressure;BME280_temperature;BME280_humidity;BME280_pressure;Samples;Min_cycle;Max_cycle;Signal;HPM_P1;HPM_P2
2021/04/10 00:02:15;;;;;;;8.40;1.38;;;36.20;8.80;;;;;;5090310;28;20079;-62
2021/04/10 00:04:42;;;;;;;3.58;1.38;;;36.20;9.60;;;;;;5068141;28;20138;-61
2021/04/10 00:07:08;;;;;;;12.57;1.30;;;36.30;9.40;;;;;;5094198;28;20068;-61
2021/04/10 00:09:35;;;;;;;3.28;1.17;;;36.20;9.00;;;;;;5077371;28;20460;-61
2021/04/10 00:12:02;;;;;;;5.15;1.77;;;36.10;8.80;;;;;;5095933;28;20108;-61
2021/04/10 00:14:28;;;;;;;8.52;2.58;;;36.10;8.20;;;;;;5091326;28;20142;-61
2021/04/10 00:16:55;;;;;;;5.38;1.73;;;36.00;8.60;;;;;;5093989;28;20097;-61
2021/04/10 00:19:21;;;;;;;6.43;1.25;;;36.00;9.70;;;;;;5095846;28;20127;-61
2021/04/10 00:21:48;;;;;;;7.57;1.55;;;35.90;9.60;;;;;;5091193;28;20068;-63
2021/04/10 00:24:15;;;;;;;9.05;1.48;;;35.90;9.20;;;;;;5092019;28;20082;-59
2021/04/10 00:26:41;;;;;;;4.22;1.33;;;35.80;9.50;;;;;;5094062;28;20104;-60
2021/04/10 00:29:08;;;;;;;6.90;1.48;;;35.80;8.60;;;;;;5091447;28;20175;-61
2021/04/10 00:31:35;;;;;;;9.77;1.52;;;35.70;8.90;;;;;;5093922;28;20065;-60
2021/04/10 00:34:01;;;;;;;7.40;1.33;;;35.70;8.60;;;;;;5093542;28;20069;-60
2021/04/10 00:36:28;;;;;;;5.63;1.33;;;35.50;8.50;;;;;;5077159;28;20202;-61
2021/04/10 00:38:55;;;;;;;4.65;1.45;;;35.50;8.50;;;;;;5094470;28;20111;-62
2021/04/10 00:41:21;;;;;;;8.25;1.70;;;35.40;8.80;;;;;;5092096;28;20467;-62
2021/04/10 00:43:48;;;;;;;4.18;1.25;;;35.50;9.40;;;;;;5093132;28;20489;-62
2021/04/10 00:46:15;;;;;;;7.45;1.08;;;35.50;8.80;;;;;;5097096;28;20513;-60
2021/04/10 00:48:41;;;;;;;11.00;1.88;;;35.70;8.50;;;;;;5096718;28;20084;-60
2021/04/10 00:51:08;;;;;;;4.93;1.17;;;35.90;9.00;;;;;;5088986;28;20125;-61
2021/04/10 00:53:35;;;;;;;3.92;1.10;;;35.90;8.10;;;;;;5096483;28;20092;-61
2021/04/10 00:56:05;;;;;;;8.70;1.90;;;35.80;8.20;;;;;;5096419;28;20476;-62
2021/04/10 00:58:35;;;;;;;5.55;1.70;;;35.90;8.40;;;;;;5101141;28;20100;-61
2021/04/10 01:01:04;;;;;;;8.18;1.80;;;35.90;7.30;;;;;;5098128;28;20079;-61
2021/04/10 01:03:32;;;;;;;10.52;1.73;;;35.90;7.80;;;;;;5091986;28;20073;-61
2021/04/10 01:05:58;;;;;;;8.43;1.52;;;35.80;7.80;;;;;;5094929;28;20158;-60
2021/04/10 01:08:27;;;;;;;5.57;1.70;;;35.80;8.70;;;;;;5096234;28;20095;-61
2021/04/10 01:10:59;;;;;;;9.43;1.63;;;35.90;7.70;;;;;;5097676;28;20080;-60
2021/04/10 01:13:37;;;;;;;8.90;2.17;;;36.10;7.50;;;;;;5094269;28;20115;-60
2021/04/10 01:16:23;;;;;;;11.40;1.50;;;36.00;8.60;;;;;;5090781;28;20163;-59
2021/04/10 01:18:53;;;;;;;;;;;35.70;8.00;;;;;;5094757;28;20131;-60
2021/04/10 01:21:46;;;;;;;5.35;2.20;;;35.40;9.20;;;;;;5102925;28;20055;-61
2021/04/10 01:24:22;;;;;;;10.90;2.15;;;35.30;8.50;;;;;;5096046;28;20092;-61
2021/04/10 01:27:06;;;;;;;18.17;2.33;;;35.00;9.40;;;;;;5095379;28;20072;-61
2021/04/10 01:29:43;;;;;;;9.95;1.80;;;34.60;8.50;;;;;;5100180;28;20088;-61
2021/04/10 01:32:10;;;;;;;7.15;1.67;;;34.30;9.30;;;;;;5082020;28;20064;-63
2021/04/10 01:34:51;;;;;;;4.55;1.48;;;34.10;8.50;;;;;;5079693;28;20080;-60
2021/04/10 01:37:29;;;;;;;8.45;1.70;;;33.80;8.50;;;;;;5097834;28;20084;-62
2021/04/10 01:40:01;;;;;;;8.10;1.63;;;33.60;9.10;;;;;;5097084;28;20166;-62
2021/04/10 01:42:29;;;;;;;9.05;1.55;;;33.40;8.40;;;;;;5097201;28;20072;-60
2021/04/10 01:44:58;;;;;;;12.27;1.95;;;33.10;9.00;;;;;;5098016;28;20068;-60
2021/04/10 01:47:25;;;;;;;11.38;1.88;;;32.90;9.70;;;;;;5098612;28;20068;-61
2021/04/10 01:49:52;;;;;;;9.75;1.98;;;32.70;10.20;;;;;;5095045;28;20509;-62
2021/04/10 01:52:21;;;;;;;5.63;2.17;;;32.60;10.40;;;;;;5096677;28;20129;-61
2021/04/10 01:54:47;;;;;;;11.60;2.22;;;32.40;11.00;;;;;;5095786;28;20572;-59
2021/04/10 01:57:15;;;;;;;9.43;2.50;;;32.30;11.40;;;;;;5098218;28;20073;-58
2021/04/10 01:59:44;;;;;;;12.93;3.22;;;32.10;10.90;;;;;;5099293;28;20231;-59
2021/04/10 02:02:12;;;;;;;18.67;3.88;;;31.90;10.30;;;;;;5095841;28;20606;-60
2021/04/10 02:04:43;;;;;;;16.15;3.55;;;31.70;10.40;;;;;;5088545;28;20088;-59
2021/04/10 02:07:11;;;;;;;9.23;3.22;;;31.60;11.60;;;;;;5098299;28;20076;-60
2021/04/10 02:09:45;;;;;;;16.60;2.80;;;31.50;11.60;;;;;;5095233;28;20095;-58
2021/04/10 02:12:13;;;;;;;8.32;2.38;;;31.40;12.60;;;;;;5097782;28;20564;-56
2021/04/10 02:14:42;;;;;;;18.13;2.17;;;31.20;12.80;;;;;;5094212;28;20482;-57
2021/04/10 02:17:09;;;;;;;9.95;1.92;;;31.00;12.80;;;;;;5093587;28;20080;-58
2021/04/10 02:19:36;;;;;;;18.90;2.20;;;30.90;12.50;;;;;;5095505;28;20101;-58
2021/04/10 02:22:04;;;;;;;10.95;2.08;;;30.70;13.00;;;;;;5098430;28;20218;-61
2021/04/10 02:24:30;;;;;;;9.77;2.20;;;30.60;13.60;;;;;;5097444;28;20156;-58
2021/04/10 02:26:57;;;;;;;27.48;2.88;;;30.40;13.80;;;;;;5097514;28;20126;-58
2021/04/10 02:29:24;;;;;;;36.67;3.45;;;30.30;15.00;;;;;;5095348;28;20120;-58
2021/04/10 02:32:08;;;;;;;44.42;3.60;;;30.20;15.10;;;;;;5094269;28;20073;-56
2021/04/10 02:34:46;;;;;;;44.92;4.90;;;30.10;15.00;;;;;;5093002;28;20183;-58
2021/04/10 02:37:14;;;;;;;49.58;7.25;;;29.90;15.00;;;;;;5098698;28;20064;-59
2021/04/10 02:39:43;;;;;;;57.80;8.88;;;29.80;14.80;;;;;;5092907;28;20188;-55
2021/04/10 02:42:13;;;;;;;43.45;7.13;;;29.60;15.10;;;;;;5095069;28;20071;-60
2021/04/10 02:44:50;;;;;;;33.67;6.43;;;29.50;15.80;;;;;;5095509;28;20655;-57
2021/04/10 02:47:21;;;;;;;32.95;4.72;;;29.40;15.80;;;;;;5093465;28;20155;-57
2021/04/10 02:49:56;;;;;;;20.58;3.85;;;29.20;16.40;;;;;;5094068;28;20085;-55
2021/04/10 02:52:45;;;;;;;18.77;3.40;;;29.10;16.10;;;;;;5092642;28;20083;-56
2021/04/10 02:55:17;;;;;;;17.10;2.88;;;29.00;16.20;;;;;;5097571;28;20072;-58
2021/04/10 02:57:45;;;;;;;12.30;2.80;;;28.90;16.60;;;;;;5090863;28;20444;-57
2021/04/10 03:00:15;;;;;;;21.20;3.45;;;28.70;16.40;;;;;;5095858;28;20125;-57
2021/04/10 03:02:42;;;;;;;25.35;3.80;;;28.60;16.10;;;;;;5090487;28;20077;-56
2021/04/10 03:05:12;;;;;;;27.33;3.60;;;28.50;16.70;;;;;;5092590;28;20095;-58
2021/04/10 03:07:45;;;;;;;17.60;3.08;;;28.50;17.20;;;;;;5094098;28;20083;-58
2021/04/10 03:10:14;;;;;;;19.85;3.53;;;28.40;17.60;;;;;;5089918;28;20572;-57
2021/04/10 03:12:41;;;;;;;18.08;3.10;;;28.30;17.50;;;;;;5091226;28;20144;-57
2021/04/10 03:15:15;;;;;;;14.20;3.10;;;28.20;16.70;;;;;;5093001;28;20138;-56
2021/04/10 03:17:43;;;;;;;21.23;3.85;;;28.10;16.60;;;;;;5093012;28;20088;-58
2021/04/10 03:20:14;;;;;;;12.40;3.22;;;28.00;16.20;;;;;;5091497;28;20080;-55
2021/04/10 03:22:45;;;;;;;25.13;3.97;;;28.00;16.80;;;;;;5095582;28;20073;-56
2021/04/10 03:25:13;;;;;;;26.48;3.80;;;27.90;17.00;;;;;;5096847;28;20064;-60
2021/04/10 03:27:41;;;;;;;26.98;3.75;;;27.90;17.20;;;;;;5090087;28;20548;-59
2021/04/10 03:30:09;;;;;;;20.75;3.30;;;27.80;17.60;;;;;;5093510;28;20212;-60
2021/04/10 03:32:38;;;;;;;19.77;3.30;;;27.80;17.80;;;;;;5096571;28;20480;-60
2021/04/10 03:35:05;;;;;;;26.67;4.03;;;27.60;16.90;;;;;;5077516;28;20092;-63
2021/04/10 03:37:32;;;;;;;20.08;3.50;;;27.60;17.30;;;;;;5093226;28;20073;-55
2021/04/10 03:40:01;;;;;;;25.00;4.30;;;27.50;17.20;;;;;;5095685;28;20125;-59
2021/04/10 03:42:41;;;;;;;18.80;3.83;;;27.50;18.00;;;;;;5094807;28;20072;-62
2021/04/10 03:45:12;;;;;;;21.58;3.60;;;27.50;18.60;;;;;;5094321;28;20590;-61
2021/04/10 03:47:39;;;;;;;22.67;3.95;;;27.40;18.30;;;;;;5096228;28;20073;-60
2021/04/10 03:50:06;;;;;;;14.77;3.92;;;27.40;18.80;;;;;;5098113;28;20543;-58
2021/04/10 03:52:33;;;;;;;14.65;3.53;;;27.30;18.10;;;;;;5097189;28;20076;-60
2021/04/10 03:55:00;;;;;;;30.80;4.63;;;27.30;19.00;;;;;;5095244;28;20080;-60
2021/04/10 03:57:27;;;;;;;13.70;3.67;;;27.20;19.00;;;;;;5098429;28;20064;-60
2021/04/10 03:59:54;;;;;;;23.70;4.45;;;27.20;19.20;;;;;;5095776;28;20076;-63
2021/04/10 04:02:21;;;;;;;19.27;4.55;;;27.10;18.30;;;;;;5096009;28;20069;-57
2021/04/10 04:04:47;;;;;;;21.10;4.57;;;27.00;18.00;;;;;;5099423;28;20625;-63
2021/04/10 04:07:14;;;;;;;19.83;5.20;;;26.90;17.50;;;;;;5096170;28;20428;-61
2021/04/10 04:09:40;;;;;;;24.33;5.40;;;26.90;17.20;;;;;;5094765;28;20151;-62
2021/04/10 04:12:09;;;;;;;19.27;5.10;;;26.80;17.40;;;;;;5093600;28;20116;-59
2021/04/10 04:14:36;;;;;;;22.25;4.88;;;26.80;17.70;;;;;;5097370;28;20171;-60
2021/04/10 04:17:04;;;;;;;17.92;4.90;;;26.80;17.70;;;;;;5092282;28;20094;-61
2021/04/10 04:19:31;;;;;;;24.30;5.18;;;26.80;18.80;;;;;;5096021;28;20101;-61
2021/04/10 04:21:58;;;;;;;17.60;4.82;;;26.70;18.10;;;;;;5098130;28;20117;-61
2021/04/10 04:24:25;;;;;;;20.13;4.43;;;26.60;18.40;;;;;;5091756;28;20122;-59
2021/04/10 04:26:51;;;;;;;26.67;5.07;;;26.60;19.20;;;;;;5098178;28;20207;-56
2021/04/10 04:29:18;;;;;;;24.17;5.63;;;26.60;19.10;;;;;;5094315;28;20080;-60
2021/04/10 04:31:44;;;;;;;31.20;7.05;;;26.40;18.70;;;;;;5094395;28;20072;-63
2021/04/10 04:34:11;;;;;;;30.13;6.53;;;26.40;17.40;;;;;;5096512;28;20118;-62
2021/04/10 04:36:37;;;;;;;51.92;8.75;;;26.40;19.00;;;;;;5094314;28;20081;-61
2021/04/10 04:39:04;;;;;;;51.25;9.60;;;26.30;18.30;;;;;;5099152;28;20099;-60
2021/04/10 04:41:31;;;;;;;49.70;10.10;;;26.30;18.00;;;;;;5093770;28;20213;-60
2021/04/10 04:43:58;;;;;;;51.70;10.98;;;26.30;18.20;;;;;;5093622;28;20103;-61
2021/04/10 04:46:24;;;;;;;68.07;26.50;;;26.30;18.40;;;;;;5098294;28;20076;-63
2021/04/10 04:48:51;;;;;;;66.05;13.95;;;26.30;17.30;;;;;;5076223;28;20083;-63
2021/04/10 04:51:19;;;;;;;77.75;14.73;;;26.30;16.70;;;;;;5075655;28;20068;-60
2021/04/10 04:53:45;;;;;;;68.03;15.02;;;26.30;17.40;;;;;;5093704;28;20111;-61
2021/04/10 04:56:12;;;;;;;85.63;19.00;;;26.30;17.50;;;;;;5092839;28;20065;-61
2021/04/10 04:58:39;;;;;;;84.20;16.23;;;26.40;16.80;;;;;;5098058;28;20201;-61
2021/04/10 05:01:05;;;;;;;63.60;15.45;;;26.40;17.40;;;;;;5092661;28;20079;-58
2021/04/10 05:03:32;;;;;;;85.18;17.85;;;26.30;17.10;;;;;;5088915;28;20496;-62
2021/04/10 05:05:58;;;;;;;74.03;15.10;;;26.30;17.70;;;;;;5095101;28;20076;-64
2021/04/10 05:08:25;;;;;;;79.30;16.55;;;26.20;18.10;;;;;;5079206;28;20072;-61
2021/04/10 05:10:51;;;;;;;87.15;16.98;;;26.20;18.20;;;;;;5094130;28;20071;-60
2021/04/10 05:13:17;;;;;;;82.80;16.33;;;26.20;17.80;;;;;;5096457;28;20429;-61
2021/04/10 05:15:44;;;;;;;82.18;15.88;;;26.20;18.40;;;;;;5098417;28;20068;-61
2021/04/10 05:18:10;;;;;;;77.55;15.20;;;26.20;18.20;;;;;;5097201;28;20138;-63
2021/04/10 05:20:38;;;;;;;65.40;16.52;;;26.20;18.20;;;;;;5094086;28;20080;-63
2021/04/10 05:23:05;;;;;;;61.88;16.05;;;26.10;17.80;;;;;;5093161;28;20127;-63
2021/04/10 05:25:33;;;;;;;59.80;14.50;;;26.10;18.80;;;;;;5096598;28;20549;-63
2021/04/10 05:27:59;;;;;;;68.50;16.05;;;26.10;18.80;;;;;;5076780;28;20068;-59
2021/04/10 05:30:27;;;;;;;65.07;16.20;;;26.00;18.20;;;;;;5095665;28;20079;-63
2021/04/10 05:32:54;;;;;;;72.57;17.15;;;26.00;18.30;;;;;;5096746;28;20076;-61
2021/04/10 05:35:23;;;;;;;79.72;15.98;;;25.90;18.40;;;;;;5093983;28;20095;-63
2021/04/10 05:37:49;;;;;;;104.82;16.20;;;25.90;18.90;;;;;;5098313;28;20099;-61
2021/04/10 05:40:16;;;;;;;71.28;15.43;;;25.80;19.70;;;;;;5093896;28;20202;-61
2021/04/10 05:42:44;;;;;;;102.25;18.05;;;25.80;19.50;;;;;;5093165;28;20076;-60
2021/04/10 05:45:11;;;;;;;86.38;16.27;;;25.80;20.30;;;;;;5093607;28;20130;-64
2021/04/10 05:47:38;;;;;;;130.55;19.55;;;25.70;20.00;;;;;;5086159;28;20071;-59
2021/04/10 05:50:05;;;;;;;63.88;16.88;;;25.60;20.30;;;;;;5103796;27;20095;-58
2021/04/10 05:52:32;;;;;;;68.25;16.50;;;25.60;19.80;;;;;;5097528;28;20080;-61
2021/04/10 05:54:58;;;;;;;60.05;14.93;;;25.50;19.90;;;;;;5097830;28;20190;-60
2021/04/10 05:57:25;;;;;;;70.55;16.35;;;25.50;20.20;;;;;;5096622;28;20093;-57
2021/04/10 05:59:52;;;;;;;69.07;15.85;;;25.40;20.30;;;;;;5094429;28;20097;-58
2021/04/10 06:02:18;;;;;;;60.00;15.02;;;25.40;20.40;;;;;;5094965;28;20068;-58
2021/04/10 06:04:45;;;;;;;53.20;14.52;;;25.40;20.50;;;;;;5097138;28;20413;-59
2021/04/10 06:07:11;;;;;;;54.92;14.70;;;25.40;20.80;;;;;;5093169;28;20069;-59
2021/04/10 06:09:38;;;;;;;62.78;15.45;;;25.40;21.30;;;;;;5092186;28;20441;-60
2021/04/10 06:12:04;;;;;;;59.33;14.18;;;25.40;21.60;;;;;;5098248;28;20116;-57
2021/04/10 06:14:31;;;;;;;75.93;16.25;;;25.40;21.60;;;;;;5095040;28;20077;-60
2021/04/10 06:16:58;;;;;;;46.05;15.50;;;25.30;21.90;;;;;;5093131;28;20080;-59
2021/04/10 06:19:25;;;;;;;61.40;14.85;;;25.20;22.30;;;;;;5096155;28;20119;-57
2021/04/10 06:21:51;;;;;;;62.83;14.00;;;25.20;23.10;;;;;;5096718;28;20075;-58
2021/04/10 06:24:18;;;;;;;59.00;14.38;;;25.20;23.10;;;;;;5094532;28;20114;-58
2021/04/10 06:26:46;;;;;;;60.45;14.68;;;25.10;23.10;;;;;;5099096;28;20087;-58
2021/04/10 06:29:13;;;;;;;70.97;15.35;;;25.10;23.20;;;;;;5094271;28;20130;-58
2021/04/10 06:31:41;;;;;;;65.95;14.27;;;25.00;23.30;;;;;;5094348;28;20107;-57
2021/04/10 06:34:08;;;;;;;57.97;13.05;;;25.00;23.80;;;;;;5096531;28;20068;-56
2021/04/10 06:36:35;;;;;;;62.33;14.98;;;25.00;24.20;;;;;;5080786;28;20081;-56
2021/04/10 06:39:04;;;;;;;60.17;15.80;;;24.90;24.60;;;;;;5095628;28;20104;-59
2021/04/10 06:41:33;;;;;;;55.65;15.43;;;24.90;24.90;;;;;;5096405;28;20072;-59
2021/04/10 06:43:59;;;;;;;66.63;14.88;;;24.90;25.00;;;;;;5093896;28;20452;-56
2021/04/10 06:46:32;;;;;;;68.05;16.30;;;24.80;25.50;;;;;;5093917;28;20076;-59
2021/04/10 06:49:01;;;;;;;53.17;14.43;;;24.80;25.60;;;;;;5090370;28;20130;-58
2021/04/10 06:51:28;;;;;;;52.00;13.82;;;24.80;25.70;;;;;;5093371;28;20096;-54
2021/04/10 06:53:56;;;;;;;61.30;13.68;;;24.70;25.80;;;;;;5094103;28;20529;-59
2021/04/10 06:56:30;;;;;;;51.53;13.02;;;24.70;26.20;;;;;;5089867;28;20457;-54
2021/04/10 06:59:09;;;;;;;52.50;14.02;;;24.70;26.30;;;;;;5089925;28;20088;-59
2021/04/10 07:01:36;;;;;;;47.63;14.07;;;24.60;26.40;;;;;;5093835;28;20080;-59
2021/04/10 07:04:03;;;;;;;55.55;14.35;;;24.60;26.60;;;;;;5093232;28;20083;-60
2021/04/10 07:06:31;;;;;;;43.83;13.10;;;24.50;26.60;;;;;;5094314;28;20084;-59
2021/04/10 07:08:58;;;;;;;51.83;13.20;;;24.40;26.60;;;;;;5097534;28;20076;-59
2021/04/10 07:11:25;;;;;;;44.58;11.40;;;24.40;26.90;;;;;;5094798;28;20090;-59
2021/04/10 07:13:51;;;;;;;36.28;9.27;;;24.40;27.40;;;;;;5092001;28;20072;-53
2021/04/10 07:16:17;;;;;;;46.90;8.27;;;24.40;27.50;;;;;;5092983;28;20111;-57
2021/04/10 07:18:45;;;;;;;28.30;6.57;;;24.50;27.90;;;;;;5097229;28;20109;-56
2021/04/10 07:21:18;;;;;;;21.73;6.30;;;24.60;27.40;;;;;;5091848;28;20428;-56
2021/04/10 07:24:04;;;;;;;19.10;6.03;;;24.70;27.20;;;;;;5097127;28;20151;-59
2021/04/10 07:27:00;;;;;;;28.25;5.53;;;24.80;27.30;;;;;;5095056;28;20401;-56
2021/04/10 07:29:41;;;;;;;26.52;6.07;;;24.90;27.10;;;;;;5095435;28;20149;-56
2021/04/10 07:32:25;;;;;;;24.02;5.60;;;24.90;27.30;;;;;;5095859;28;20076;-56
2021/04/10 07:34:52;;;;;;;28.20;5.85;;;24.90;27.30;;;;;;5095200;28;20596;-59
2021/04/10 07:37:35;;;;;;;18.10;4.88;;;24.90;27.40;;;;;;5096091;28;20068;-57
2021/04/10 07:40:09;;;;;;;19.27;4.47;;;24.90;27.40;;;;;;5091985;28;20084;-56
2021/04/10 07:42:38;;;;;;;27.45;5.55;;;24.90;27.30;;;;;;5090997;28;20073;-56
2021/04/10 07:45:22;;;;;;;30.50;6.10;;;24.90;27.60;;;;;;5097276;28;20088;-59
2021/04/10 07:47:49;;;;;;;23.27;5.60;;;24.90;27.20;;;;;;5089527;28;20084;-55
2021/04/10 07:50:22;;;;;;;29.10;5.22;;;24.90;27.00;;;;;;5093278;28;20088;-57
2021/04/10 07:52:50;;;;;;;22.30;4.93;;;24.90;27.10;;;;;;5092341;28;20077;-57
2021/04/10 07:55:40;;;;;;;13.15;4.25;;;24.90;27.00;;;;;;5093974;28;20138;-53
2021/04/10 07:58:27;;;;;;;17.48;4.55;;;24.90;26.70;;;;;;5093593;28;20609;-55
2021/04/10 08:00:59;;;;;;;23.38;4.78;;;24.90;26.30;;;;;;5088090;28;20108;-56
2021/04/10 08:03:30;;;;;;;17.67;4.75;;;24.90;26.50;;;;;;5088762;28;20077;-53
2021/04/10 08:06:08;;;;;;;19.58;4.38;;;24.90;27.20;;;;;;5090636;28;20514;-54
2021/04/10 08:08:48;;;;;;;14.27;4.32;;;24.80;27.30;;;;;;5097728;28;20072;-54
2021/04/10 08:11:15;;;;;;;14.68;4.07;;;24.80;27.10;;;;;;5093687;28;20514;-55
2021/04/10 08:13:55;;;;;;;17.95;4.80;;;24.80;27.10;;;;;;5092747;28;20150;-54
2021/04/10 08:16:23;;;;;;;21.92;4.90;;;24.70;27.20;;;;;;5090422;28;20111;-56
2021/04/10 08:18:56;;;;;;;20.13;4.47;;;24.70;27.80;;;;;;5095041;28;20134;-56
2021/04/10 08:21:38;;;;;;;21.52;4.57;;;24.60;28.10;;;;;;5094733;28;20073;-58
2021/04/10 08:24:28;;;;;;;19.27;4.22;;;24.50;28.50;;;;;;5094346;28;20073;-55
2021/04/10 08:27:07;;;;;;;18.88;4.82;;;24.50;28.80;;;;;;5095095;28;20084;-58
2021/04/10 08:29:35;;;;;;;20.25;5.20;;;24.40;28.70;;;;;;5093184;28;20087;-57
2021/04/10 08:32:02;;;;;;;22.75;5.00;;;24.30;29.20;;;;;;5093590;28;20065;-57
2021/04/10 08:34:31;;;;;;;18.30;4.57;;;24.30;29.40;;;;;;5092351;28;20109;-56
2021/04/10 08:37:03;;;;;;;27.75;4.70;;;24.20;29.30;;;;;;5080634;28;20505;-55
2021/04/10 08:39:36;;;;;;;22.25;4.60;;;24.10;28.80;;;;;;5094892;28;20096;-55
2021/04/10 08:42:03;;;;;;;18.15;4.78;;;24.10;29.10;;;;;;5096186;28;20072;-56
2021/04/10 08:44:33;;;;;;;17.25;4.50;;;24.00;29.20;;;;;;5093214;28;20069;-56
2021/04/10 08:47:01;;;;;;;19.27;4.80;;;24.00;29.00;;;;;;5094838;28;20080;-58
2021/04/10 08:49:34;;;;;;;20.50;5.25;;;23.90;29.10;;;;;;5090420;28;21000;-56
2021/04/10 08:52:14;;;;;;;24.83;5.85;;;23.80;29.30;;;;;;5091462;28;20151;-54
2021/04/10 08:54:42;;;;;;;22.42;4.90;;;23.80;29.40;;;;;;5094166;28;20083;-58
2021/04/10 08:57:11;;;;;;;28.35;4.93;;;23.80;29.20;;;;;;5094823;28;20078;-55
2021/04/10 08:59:45;;;;;;;22.55;5.20;;;23.80;29.30;;;;;;5096418;28;20100;-58
2021/04/10 09:02:23;;;;;;;17.60;5.07;;;23.70;29.30;;;;;;5095529;28;20477;-53
2021/04/10 09:04:58;;;;;;;18.63;4.53;;;23.70;28.80;;;;;;5092927;28;20145;-56
2021/04/10 09:07:46;;;;;;;19.83;4.63;;;23.70;28.50;;;;;;5092359;28;20069;-55
2021/04/10 09:10:28;;;;;;;16.77;3.65;;;23.80;28.20;;;;;;5092341;28;20072;-55
2021/04/10 09:13:16;;;;;;;24.00;4.28;;;23.80;27.30;;;;;;5093179;28;20116;-53
2021/04/10 09:15:43;;;;;;;18.25;3.55;;;23.80;27.30;;;;;;5089294;28;20068;-58
2021/04/10 09:18:11;;;;;;;17.50;3.75;;;23.80;26.70;;;;;;5094375;28;20101;-58
2021/04/10 09:20:44;;;;;;;25.05;4.50;;;23.80;26.60;;;;;;5096268;28;20079;-57
2021/04/10 09:23:26;;;;;;;12.68;3.22;;;23.90;26.20;;;;;;5095798;28;20069;-57
2021/04/10 09:26:15;;;;;;;16.33;3.15;;;24.00;25.30;;;;;;5098163;28;20072;-56
2021/04/10 09:29:06;;;;;;;11.52;3.05;;;24.00;25.00;;;;;;5095176;28;20152;-58
2021/04/10 09:31:48;;;;;;;16.50;3.25;;;24.10;24.70;;;;;;5097808;28;20532;-55
2021/04/10 09:34:49;;;;;;;17.25;3.70;;;24.10;25.00;;;;;;5095358;28;20152;-56
2021/04/10 09:37:25;;;;;;;17.98;3.72;;;24.00;24.90;;;;;;5095486;28;20076;-58
2021/04/10 09:40:04;;;;;;;15.60;3.97;;;24.10;24.80;;;;;;5097781;28;20100;-56
2021/04/10 09:42:37;;;;;;;12.57;3.67;;;24.00;25.30;;;;;;5097861;28;20096;-57
2021/04/10 09:45:23;;;;;;;13.23;3.10;;;24.00;25.10;;;;;;5097098;28;20084;-59
2021/04/10 09:50:26;;;;;;;15.55;2.95;;;24.00;24.50;;;;;;5097277;28;20088;-56
2021/04/10 09:53:00;;;;;;;12.77;3.40;;;24.00;24.20;;;;;;5096533;28;20074;-56
2021/04/10 09:55:28;;;;;;;11.80;3.40;;;24.10;23.90;;;;;;5095865;28;20076;-57
2021/04/10 09:57:55;;;;;;;10.95;3.15;;;24.10;23.30;;;;;;5098759;28;20095;-57
2021/04/10 10:00:31;;;;;;;14.18;3.05;;;24.20;23.30;;;;;;5098726;28;20088;-56
2021/04/10 10:02:58;;;;;;;10.52;2.70;;;24.30;23.40;;;;;;5097373;28;20502;-57
2021/04/10 10:05:31;;;;;;;13.38;3.25;;;24.30;23.10;;;;;;5095300;28;20137;-52
2021/04/10 10:08:17;;;;;;;17.30;2.90;;;24.30;23.10;;;;;;5093511;28;20429;-58
2021/04/10 10:10:51;;;;;;;11.87;2.87;;;24.30;22.90;;;;;;5097726;28;20076;-56
2021/04/10 10:13:19;;;;;;;12.63;3.05;;;24.30;22.80;;;;;;5096666;28;20116;-56
2021/04/10 10:15:48;;;;;;;13.35;3.15;;;24.30;23.10;;;;;;5096280;28;20065;-58
2021/04/10 10:18:27;;;;;;;12.30;3.30;;;24.30;23.30;;;;;;5099954;28;20605;-53
2021/04/10 10:21:09;;;;;;;16.23;2.33;;;24.20;23.10;;;;;;5096863;28;20902;-55
2021/04/10 10:23:49;;;;;;;15.52;2.83;;;24.20;23.00;;;;;;5096717;28;20141;-54
2021/04/10 10:26:17;;;;;;;15.15;2.90;;;24.20;23.20;;;;;;5096449;28;20076;-55
2021/04/10 10:28:58;;;;;;;17.05;3.67;;;24.20;23.00;;;;;;5094070;28;20626;-57
2021/04/10 10:31:29;;;;;;;15.93;3.33;;;24.20;22.70;;;;;;5094622;28;20111;-56
2021/04/10 10:34:07;;;;;;;12.95;3.05;;;24.20;22.50;;;;;;5094001;28;20106;-56
2021/04/10 10:36:36;;;;;;;20.42;2.92;;;24.20;22.50;;;;;;5095082;28;20076;-58
2021/04/10 10:39:06;;;;;;;13.63;2.95;;;24.20;22.70;;;;;;5095473;28;20092;-57
2021/04/10 10:41:43;;;;;;;11.43;3.03;;;24.10;22.70;;;;;;5093396;28;20174;-57
2021/04/10 10:44:10;;;;;;;11.13;3.20;;;24.10;22.60;;;;;;5097267;28;20179;-56
2021/04/10 10:46:37;;;;;;;16.83;2.50;;;24.10;22.80;;;;;;5093589;28;20072;-57
2021/04/10 10:49:11;;;;;;;14.02;2.90;;;24.10;22.80;;;;;;5097373;28;20104;-57
2021/04/10 10:51:39;;;;;;;15.48;3.28;;;24.10;22.90;;;;;;5097027;28;20106;-55
2021/04/10 10:54:06;;;;;;;9.43;2.47;;;24.00;23.30;;;;;;5093570;28;20533;-59
2021/04/10 10:56:34;;;;;;;10.73;3.15;;;24.00;23.80;;;;;;5094027;28;20076;-58
2021/04/10 10:59:06;;;;;;;13.55;2.63;;;23.90;24.10;;;;;;5095232;28;20096;-59
2021/04/10 11:01:39;;;;;;;13.43;3.15;;;23.80;24.10;;;;;;5095732;28;20076;-56
2021/04/10 11:04:33;;;;;;;17.45;3.15;;;23.80;24.80;;;;;;5093161;28;20080;-55
2021/04/10 11:07:02;;;;;;;10.07;2.78;;;23.70;24.80;;;;;;5095308;28;20114;-56
2021/04/10 11:09:31;;;;;;;12.27;2.90;;;23.60;24.70;;;;;;5095397;28;20103;-52
2021/04/10 11:12:06;;;;;;;13.70;3.20;;;23.50;24.60;;;;;;5095020;28;20584;-55
2021/04/10 11:14:40;;;;;;;14.65;3.50;;;23.50;25.50;;;;;;5096080;28;20080;-55
2021/04/10 11:17:06;;;;;;;13.25;2.97;;;23.40;24.70;;;;;;5098850;28;21199;-54
2021/04/10 11:19:37;;;;;;;11.65;2.78;;;23.40;24.80;;;;;;5095470;28;20096;-54
2021/04/10 11:22:06;;;;;;;13.18;3.15;;;23.30;24.70;;;;;;5092186;28;20151;-57
2021/04/10 11:24:37;;;;;;;14.77;3.60;;;23.30;24.70;;;;;;5096963;28;20080;-56
2021/04/10 11:27:22;;;;;;;14.52;2.90;;;23.30;25.10;;;;;;5096369;28;20072;-57
2021/04/10 11:30:00;;;;;;;20.23;3.38;;;23.30;25.20;;;;;;5096729;28;20125;-56
2021/04/10 11:32:46;;;;;;;10.65;2.60;;;23.20;24.80;;;;;;5096581;28;20064;-56
2021/04/10 11:35:19;;;;;;;10.53;3.23;;;23.20;25.90;;;;;;5093670;28;20068;-58
2021/04/10 11:37:56;;;;;;;12.82;2.95;;;23.10;26.10;;;;;;5092550;28;20333;-58
2021/04/10 11:40:34;;;;;;;15.98;3.85;;;23.10;26.10;;;;;;5097287;28;20148;-56
2021/04/10 11:43:06;;;;;;;11.52;3.08;;;23.00;26.20;;;;;;5091880;28;20100;-57
2021/04/10 11:45:37;;;;;;;19.55;3.30;;;22.90;25.90;;;;;;5090801;28;20083;-57
2021/04/10 11:48:17;;;;;;;15.90;3.67;;;22.80;26.00;;;;;;5096205;28;20104;-57
2021/04/10 11:50:55;;;;;;;13.68;3.10;;;22.80;26.00;;;;;;5096621;28;20079;-55
2021/04/10 11:53:23;;;;;;;17.88;3.38;;;22.80;26.70;;;;;;5089437;28;20080;-57
2021/04/10 11:55:51;;;;;;;14.88;3.85;;;22.80;26.50;;;;;;5094842;28;20210;-57
2021/04/10 11:58:37;;;;;;;11.48;2.85;;;22.70;26.50;;;;;;5091162;28;20096;-57
2021/04/10 12:01:14;;;;;;;13.07;3.37;;;22.70;26.90;;;;;;5093287;28;20586;-53
2021/04/10 12:03:53;;;;;;;13.60;3.50;;;22.70;26.90;;;;;;5093315;28;20392;-54
2021/04/10 12:06:37;;;;;;;13.98;3.72;;;22.60;26.90;;;;;;5092700;28;20102;-54
2021/04/10 12:09:14;;;;;;;14.27;3.58;;;22.60;27.10;;;;;;5092400;28;20640;-54
2021/04/10 12:11:42;;;;;;;12.80;3.35;;;22.60;27.60;;;;;;5092676;28;20459;-52
2021/04/10 12:14:12;;;;;;;12.15;3.63;;;22.50;27.80;;;;;;5096100;28;20072;-55
2021/04/10 12:16:39;;;;;;;13.77;3.58;;;22.50;28.10;;;;;;5096675;28;20111;-56
2021/04/10 12:19:07;;;;;;;17.75;3.67;;;22.40;28.60;;;;;;5097226;28;20096;-54
2021/04/10 12:21:34;;;;;;;10.23;3.50;;;22.30;29.10;;;;;;5091638;28;20738;-54
2021/04/10 12:24:00;;;;;;;14.40;3.13;;;22.30;29.20;;;;;;5096749;28;20069;-53
2021/04/10 12:26:27;;;;;;;21.17;3.80;;;22.20;29.40;;;;;;5095598;28;20099;-57
2021/04/10 12:28:54;;;;;;;18.70;4.25;;;22.20;29.80;;;;;;5093654;28;20091;-56
2021/04/10 12:31:22;;;;;;;14.90;3.55;;;22.10;29.70;;;;;;5097190;28;20072;-56
2021/04/10 12:33:49;;;;;;;22.25;3.67;;;22.10;29.30;;;;;;5095136;28;20085;-53
2021/04/10 12:36:15;;;;;;;17.35;3.88;;;22.00;30.10;;;;;;5093281;28;20101;-53
2021/04/10 12:38:43;;;;;;;16.80;3.33;;;22.00;29.70;;;;;;5091229;28;20176;-55
2021/04/10 12:41:09;;;;;;;13.55;3.22;;;21.90;29.60;;;;;;5093998;28;20164;-53
2021/04/10 12:43:36;;;;;;;15.57;3.50;;;21.90;30.10;;;;;;5093511;28;20073;-53
2021/04/10 12:46:03;;;;;;;19.77;3.47;;;21.90;30.60;;;;;;5095879;28;20121;-52
2021/04/10 12:48:29;;;;;;;15.07;3.67;;;21.80;30.00;;;;;;5095770;28;20108;-52
2021/04/10 12:50:56;;;;;;;14.52;3.28;;;21.80;30.50;;;;;;5096928;28;20092;-56
2021/04/10 12:53:22;;;;;;;12.70;3.63;;;21.80;30.40;;;;;;5090865;28;20107;-53
2021/04/10 12:55:49;;;;;;;18.55;4.35;;;21.70;30.30;;;;;;5081856;28;20374;-54
2021/04/10 12:58:15;;;;;;;14.82;3.83;;;21.70;30.30;;;;;;5099862;28;20084;-54
2021/04/10 13:00:42;;;;;;;18.88;3.88;;;21.60;30.20;;;;;;5095476;28;20073;-56